Philadelphia International Airport

Airport
ICAO code: 
KPHL
Summary
ICAO Region: 
NAM
Territory: 
Location: 
Philadelphia, Pennsylvania,
Coordinates: 
Aerial View: 
39° 52' 23.864" N, 75° 14' 18.376" W
Airport LOS: 
Parallel Runway Operation
Metar
Observation
KPHL 020954Z 00000KT 10SM BKN070 OVC095 09/06 A2990 RMK AO2 SLP126 T00890056 $
Station
Philadelphia, Philadelphia International Airport
Date/Time
2021-12-02 09:54:00
Wind direction
Wind speed
00 kts
Lowest cloud amount
broken clouds
Temperature
8.9°C
Dew point
5.6°C
Humidity
79%
Weather condition
n/a

Description

Large international airport 5nm south of central Philadelphia.

Climatology

Humid “subtropical” climate (Köppen climate classification Cfa) - characterized by hot, humid summers and cool winters. Significant amounts of precipitation occur in all seasons in most areas. Winter rainfall (and sometimes snowfall) is associated with large storms that the westerlies steer from west to east. Most summer rainfall occurs during thunderstorms.

Runways

Designator Length Width Surface Rops
8/26 1524 46 ASP Yes/Yes
17/35 1664 46 ASP Yes/Yes
09L/27R 2896 46 ASP Yes/Yes
09R/27L 3202 61 ASP Yes/Yes
Airport map: 
Aerial View: 

Accidents and Serious Incidents at or in the vicinity of KPHL

SKYbrary Partners:

Safety knowledge contributed by: